McGrew, Nebraska
Current Conditions -  °F | °C
As of 2:53 AM on Tuesday 21 Oct 2014 (Local Time) from KBFF Reporting Station
Clear Clear  
Wind Chill: 50°   Ceiling: Unl
Heat Index: 50°   Visibility: 10mi
Dew Point: 41°   Wind: 8mph
Humidity: 71%   Direction: 140°SE
Pressure: 29.98"   Gusts: NA
Location:  41.75°N, 103.42°W
Report Text: KBFF 210853Z AUTO 14007KT 10SM CLR 10/05 A2998 RMK AO2 SLP116 T01000050 58003
Loading
Personal Weather Stations






























Interactive Weather Map New forecast layout! Learn more

10-Day Weather Forecast

Advertisements
Track Severe Weather on mobile